Time;durP1;ratioP1;P1;durP2;ratioP2;P2;SDS_P1;SDS_P2;PMS_P1;PMS_P2;Temp;Humidity;BMP_temperature;BMP_pressure;BME280_temperature;BME280_humidity;BME280_pressure;Samples;Min_cycle;Max_cycle;Signal;HPM_P1;HPM_P2
2022/01/15 00:00:17;;;;;;;28.97;13.17;;;0.00;99.90;;;;;;5035656;28;20450;-89
2022/01/15 00:02:44;;;;;;;20.90;10.87;;;0.00;99.90;;;;;;5037936;28;20428;-90
2022/01/15 00:05:12;;;;;;;33.03;13.17;;;0.00;99.90;;;;;;5038009;28;20442;-88
2022/01/15 00:07:41;;;;;;;27.03;12.07;;;0.00;99.90;;;;;;5032142;28;20503;-89
2022/01/15 00:10:09;;;;;;;30.83;12.30;;;-0.30;99.90;;;;;;5033745;28;20437;-88
2022/01/15 00:12:40;;;;;;;17.37;10.37;;;-0.20;99.90;;;;;;5033925;28;20523;-88
2022/01/15 00:15:11;;;;;;;30.70;12.30;;;-0.20;99.90;;;;;;5059760;22;20490;-58
2022/01/15 00:17:49;;;;;;;21.37;9.43;;;-0.10;99.90;;;;;;5041096;28;20462;-57
2022/01/15 00:20:20;;;;;;;14.83;7.90;;;-0.10;99.90;;;;;;5042979;28;20479;-57
2022/01/15 00:22:47;;;;;;;8.10;6.50;;;0.00;99.90;;;;;;5042286;28;20861;-57
2022/01/15 00:25:15;;;;;;;10.57;6.97;;;0.10;99.90;;;;;;5042149;28;20480;-57
2022/01/15 00:27:42;;;;;;;8.50;6.80;;;0.10;99.90;;;;;;5074047;23;20487;-83
2022/01/15 00:30:11;;;;;;;13.27;8.10;;;0.10;99.90;;;;;;5054278;28;20420;-83
2022/01/15 00:32:38;;;;;;;29.33;8.53;;;0.20;99.90;;;;;;5060429;28;20841;-84
2022/01/15 00:35:10;;;;;;;16.30;9.87;;;0.20;99.90;;;;;;5050303;28;20915;-83
2022/01/15 00:37:38;;;;;;;36.27;10.10;;;0.20;99.90;;;;;;5045898;28;20958;-82
2022/01/15 00:40:09;;;;;;;47.20;12.47;;;0.20;99.90;;;;;;5050534;28;20542;-83
2022/01/15 00:42:38;;;;;;;45.83;14.33;;;0.00;99.90;;;;;;5043981;28;20451;-83
2022/01/15 00:45:08;;;;;;;38.50;10.60;;;-0.10;99.90;;;;;;5048247;28;21010;-83
2022/01/15 00:47:36;;;;;;;14.33;8.97;;;-0.20;99.90;;;;;;5054563;28;20979;-83
2022/01/15 00:50:05;;;;;;;13.37;8.27;;;-0.20;99.90;;;;;;5059715;28;20966;-83
2022/01/15 00:52:33;;;;;;;35.77;9.00;;;-0.20;99.90;;;;;;5059892;28;20837;-84
2022/01/15 00:55:01;;;;;;;13.60;6.17;;;-0.10;99.90;;;;;;5050545;28;20500;-83
2022/01/15 00:57:28;;;;;;;12.90;5.83;;;0.00;99.90;;;;;;5044112;28;20510;-83
2022/01/15 00:59:55;;;;;;;10.50;6.93;;;0.10;99.90;;;;;;5060558;28;20440;-83
2022/01/15 01:02:22;;;;;;;9.97;6.47;;;0.10;99.90;;;;;;5044225;28;20476;-83
2022/01/15 01:04:49;;;;;;;10.67;7.77;;;0.20;99.90;;;;;;5052115;28;20516;-83
2022/01/15 01:07:16;;;;;;;34.30;10.80;;;0.30;99.90;;;;;;5063807;28;20470;-83
2022/01/15 01:10:02;;;;;;;10.27;7.60;;;0.30;99.90;;;;;;5054455;28;20487;-83
2022/01/15 01:12:44;;;;;;;12.43;8.57;;;0.30;99.90;;;;;;5049852;28;20530;-83
2022/01/15 01:21:16;;;;;;;12.00;8.10;;;0.40;99.90;;;;;;5020441;28;20420;-83
2022/01/15 01:23:42;;;;;;;16.77;10.80;;;0.40;99.90;;;;;;5012756;28;20945;-84
2022/01/15 01:26:23;;;;;;;10.43;8.43;;;0.40;99.90;;;;;;5030849;28;20461;-83
2022/01/15 01:28:59;;;;;;;47.07;11.90;;;0.40;99.90;;;;;;5066670;28;20455;-83
2022/01/15 01:31:34;;;;;;;17.57;11.53;;;0.40;99.90;;;;;;5062295;28;20477;-83
2022/01/15 01:34:07;;;;;;;17.23;10.73;;;0.40;99.90;;;;;;5050992;28;20467;-83
2022/01/15 01:36:42;;;;;;;29.80;14.83;;;0.40;99.90;;;;;;5057130;28;21164;-83
2022/01/15 01:39:15;;;;;;;29.47;14.27;;;0.50;99.90;;;;;;5057918;28;20483;-82
2022/01/15 01:41:52;;;;;;;23.67;13.40;;;0.50;99.90;;;;;;5044238;28;20452;-83
2022/01/15 01:44:24;;;;;;;24.77;8.43;;;0.50;99.90;;;;;;5053466;28;20482;-83
2022/01/15 01:46:58;;;;;;;12.10;6.33;;;0.50;99.90;;;;;;5051897;28;21097;-83
2022/01/15 01:49:25;;;;;;;11.70;4.43;;;0.50;99.90;;;;;;5059258;28;20452;-82
2022/01/15 01:51:52;;;;;;;14.10;3.87;;;0.50;99.90;;;;;;5054708;28;20538;-83
2022/01/15 01:54:19;;;;;;;5.50;2.77;;;0.50;99.90;;;;;;5055689;28;20494;-83
2022/01/15 01:56:48;;;;;;;8.23;2.73;;;0.50;99.90;;;;;;5051250;28;20480;-83
2022/01/15 01:59:16;;;;;;;7.63;2.97;;;0.40;99.90;;;;;;5052240;28;20501;-83
2022/01/15 02:01:43;;;;;;;6.73;2.60;;;0.20;99.90;;;;;;5049985;28;20797;-83
2022/01/15 02:04:11;;;;;;;5.87;2.30;;;0.20;99.90;;;;;;5062682;28;20498;-83
2022/01/15 02:06:38;;;;;;;3.63;2.20;;;0.20;99.90;;;;;;5061406;28;20453;-83
2022/01/15 02:09:06;;;;;;;3.60;2.73;;;-0.10;99.90;;;;;;5050059;28;20520;-83
2022/01/15 02:11:33;;;;;;;7.27;2.77;;;-0.40;99.90;;;;;;5053055;28;20500;-83
2022/01/15 02:14:02;;;;;;;2.57;2.30;;;-0.50;99.90;;;;;;5054619;28;20525;-83
2022/01/15 02:16:29;;;;;;;8.53;3.23;;;-0.40;99.90;;;;;;5055485;28;20454;-83
2022/01/15 02:18:56;;;;;;;3.60;2.90;;;-0.40;99.90;;;;;;5044815;28;20455;-83
2022/01/15 02:24:09;;;;;;;30.23;5.70;;;-0.30;99.90;;;;;;5049996;28;20466;-83
2022/01/15 02:26:38;;;;;;;136.03;12.23;;;-0.40;99.90;;;;;;5048393;28;21127;-83
2022/01/15 02:29:05;;;;;;;91.47;13.13;;;-0.50;99.90;;;;;;5053800;28;20537;-83
2022/01/15 02:31:33;;;;;;;69.17;9.57;;;-0.60;99.90;;;;;;5062327;28;20453;-83
2022/01/15 02:34:01;;;;;;;8.20;4.73;;;-0.90;99.90;;;;;;5054583;28;20491;-83
2022/01/15 02:36:32;;;;;;;39.00;7.03;;;-0.80;99.90;;;;;;5047728;28;20532;-83
2022/01/15 02:38:59;;;;;;;12.70;4.00;;;-0.70;99.90;;;;;;5062567;28;20550;-84
2022/01/15 02:41:30;;;;;;;5.23;2.50;;;-0.70;99.90;;;;;;5043952;28;20468;-83
2022/01/15 02:43:59;;;;;;;21.93;4.43;;;-0.60;99.90;;;;;;5054202;28;20473;-84
2022/01/15 02:48:00;;;;;;;22.90;5.10;;;-0.50;99.90;;;;;;5052865;28;20456;-83
2022/01/15 02:49:22;;;;;;;10.70;4.67;;;-0.50;99.90;;;;;;5060388;28;20451;-83
2022/01/15 02:51:50;;;;;;;25.40;4.20;;;-0.70;99.90;;;;;;5045476;28;20488;-83
2022/01/15 02:54:17;;;;;;;43.27;9.13;;;-0.90;99.90;;;;;;5046867;28;20506;-83
2022/01/15 02:56:45;;;;;;;89.13;10.53;;;-1.20;99.90;;;;;;5054080;28;20451;-83
2022/01/15 02:59:17;;;;;;;19.23;6.33;;;-1.20;99.90;;;;;;5064925;28;21013;-83
2022/01/15 03:01:44;;;;;;;47.07;7.17;;;-1.00;99.90;;;;;;5052760;28;20593;-83
2022/01/15 03:04:11;;;;;;;97.37;13.00;;;-0.90;99.90;;;;;;5052691;28;20510;-83
2022/01/15 03:06:38;;;;;;;27.97;6.40;;;-0.90;99.90;;;;;;5065392;28;20444;-83
2022/01/15 03:09:07;;;;;;;88.77;10.83;;;-0.80;99.90;;;;;;5054756;28;20499;-84
2022/01/15 03:11:33;;;;;;;49.73;7.67;;;-1.00;99.90;;;;;;5050832;28;20481;-82
2022/01/15 03:14:01;;;;;;;49.43;9.07;;;-1.30;99.90;;;;;;5052115;28;20471;-83
2022/01/15 03:16:28;;;;;;;54.00;9.23;;;-1.50;99.90;;;;;;5061905;28;20472;-83
2022/01/15 03:18:55;;;;;;;87.77;11.37;;;-1.60;99.90;;;;;;5054767;28;21003;-83
2022/01/15 03:21:22;;;;;;;31.33;5.50;;;-1.80;99.90;;;;;;5059288;28;20484;-83
2022/01/15 03:23:49;;;;;;;11.50;4.80;;;-1.80;99.90;;;;;;5062781;28;20452;-83
2022/01/15 03:26:18;;;;;;;17.77;5.50;;;-1.60;99.90;;;;;;5051483;28;20481;-83
2022/01/15 03:28:45;;;;;;;23.73;5.47;;;-1.40;99.90;;;;;;5046471;28;20482;-83
2022/01/15 03:31:13;;;;;;;24.40;5.17;;;-1.20;99.90;;;;;;5058021;28;20482;-83
2022/01/15 03:33:40;;;;;;;31.57;5.27;;;-1.10;99.90;;;;;;5059526;28;20477;-83
2022/01/15 03:36:07;;;;;;;37.90;7.13;;;-1.10;99.90;;;;;;5053442;28;20485;-83
2022/01/15 03:38:34;;;;;;;33.17;6.07;;;-1.00;99.90;;;;;;5058864;28;20498;-83
2022/01/15 03:41:03;;;;;;;19.47;5.33;;;-1.10;99.90;;;;;;5043741;28;20883;-83
2022/01/15 03:43:32;;;;;;;17.50;5.23;;;-1.20;99.90;;;;;;5047943;28;20466;-83
2022/01/15 03:45:59;;;;;;;9.80;3.90;;;-1.30;99.90;;;;;;5043745;28;20540;-83
2022/01/15 03:48:27;;;;;;;8.20;2.93;;;-1.20;99.90;;;;;;5065478;28;20474;-84
2022/01/15 03:50:54;;;;;;;28.50;4.47;;;-1.20;99.90;;;;;;5049317;28;20522;-83
2022/01/15 03:53:22;;;;;;;1.70;1.53;;;-1.20;99.90;;;;;;5053949;28;20511;-83
2022/01/15 03:55:50;;;;;;;4.03;2.37;;;-1.10;99.90;;;;;;5060187;28;20506;-82
2022/01/15 03:58:17;;;;;;;4.57;2.93;;;-1.10;99.90;;;;;;5051392;28;20967;-83
2022/01/15 04:00:45;;;;;;;6.90;2.43;;;-1.30;99.90;;;;;;5054127;28;20888;-83
2022/01/15 04:03:12;;;;;;;2.73;2.53;;;-1.50;99.90;;;;;;5055286;28;20465;-83
2022/01/15 04:05:39;;;;;;;2.90;2.30;;;-1.40;99.90;;;;;;5058524;28;21156;-83
2022/01/15 04:08:07;;;;;;;2.53;2.00;;;-1.40;99.90;;;;;;5047103;28;20946;-82
2022/01/15 04:10:34;;;;;;;2.97;2.30;;;-1.30;99.90;;;;;;5050714;28;20478;-82
2022/01/15 04:13:01;;;;;;;2.20;2.00;;;-1.30;99.90;;;;;;5038792;28;20528;-83
2022/01/15 04:15:28;;;;;;;3.30;1.70;;;-1.30;99.90;;;;;;5055459;28;20504;-83
2022/01/15 04:17:57;;;;;;;2.23;1.67;;;-1.40;99.90;;;;;;5051998;28;20451;-82
2022/01/15 04:20:24;;;;;;;2.13;1.50;;;-1.40;99.90;;;;;;5058742;28;20863;-83
2022/01/15 04:22:52;;;;;;;1.43;1.20;;;-1.30;99.90;;;;;;5058643;28;20443;-83
2022/01/15 04:25:20;;;;;;;3.03;1.60;;;-1.30;99.90;;;;;;5041467;28;20533;-83
2022/01/15 04:27:47;;;;;;;2.63;1.80;;;-1.30;99.90;;;;;;5057927;28;20480;-83
2022/01/15 04:30:16;;;;;;;6.40;3.57;;;-1.30;99.90;;;;;;5059114;28;20446;-82
2022/01/15 04:32:43;;;;;;;4.30;3.50;;;-1.80;99.90;;;;;;5049888;28;20516;-83
2022/01/15 04:35:12;;;;;;;3.13;2.40;;;-1.80;99.90;;;;;;5049664;28;20521;-82
2022/01/15 04:37:43;;;;;;;4.73;2.90;;;-1.70;99.90;;;;;;5053137;28;20862;-83
2022/01/15 04:40:12;;;;;;;9.37;4.50;;;-1.90;99.90;;;;;;5055129;28;20506;-83
2022/01/15 04:42:39;;;;;;;8.60;5.27;;;-1.90;99.90;;;;;;5052255;28;20484;-83
2022/01/15 04:45:07;;;;;;;6.43;3.90;;;-1.70;99.90;;;;;;5056208;28;20507;-83
2022/01/15 04:47:35;;;;;;;8.60;5.43;;;-1.60;99.90;;;;;;5049492;28;20444;-83
2022/01/15 04:50:02;;;;;;;5.57;3.70;;;-1.50;99.90;;;;;;5041350;28;20449;-82
2022/01/15 04:52:33;;;;;;;5.30;3.40;;;-1.60;99.90;;;;;;5053036;28;20478;-84
2022/01/15 04:55:01;;;;;;;7.63;4.63;;;-1.90;99.90;;;;;;5054313;28;20477;-83
2022/01/15 04:57:28;;;;;;;2.83;2.57;;;-2.20;99.90;;;;;;5056910;28;20510;-83
2022/01/15 04:59:55;;;;;;;6.57;3.90;;;-2.20;99.90;;;;;;5050723;28;20499;-82
2022/01/15 05:02:22;;;;;;;6.70;3.23;;;-2.10;99.90;;;;;;5068176;28;20437;-85
2022/01/15 05:04:49;;;;;;;3.50;3.20;;;-2.00;99.90;;;;;;5062633;28;20446;-83
2022/01/15 05:07:16;;;;;;;6.43;4.10;;;-1.80;99.90;;;;;;5040539;28;20506;-82
2022/01/15 05:09:44;;;;;;;25.07;7.13;;;-1.80;99.90;;;;;;5053638;28;20446;-83
2022/01/15 05:12:23;;;;;;;7.40;5.67;;;-1.70;99.90;;;;;;5057261;28;20444;-83
2022/01/15 05:14:50;;;;;;;6.40;5.03;;;-1.70;99.90;;;;;;5044640;28;20907;-82
2022/01/15 05:17:17;;;;;;;6.27;4.00;;;-1.70;99.90;;;;;;5044605;28;20454;-84
2022/01/15 05:19:44;;;;;;;7.23;4.60;;;-1.70;99.90;;;;;;5060204;28;20470;-83
2022/01/15 05:22:11;;;;;;;7.70;4.47;;;-1.70;99.90;;;;;;5054334;28;20430;-82
2022/01/15 05:24:38;;;;;;;7.07;4.53;;;-1.70;99.90;;;;;;5048567;28;20845;-82
2022/01/15 05:27:06;;;;;;;3.97;3.30;;;-1.70;99.90;;;;;;5050294;28;20633;-82
2022/01/15 05:29:33;;;;;;;7.03;4.50;;;-1.70;99.90;;;;;;5051822;28;20855;-82
2022/01/15 05:32:00;;;;;;;21.77;6.80;;;-1.60;99.90;;;;;;5050509;28;20522;-82
2022/01/15 05:34:27;;;;;;;12.43;5.30;;;-1.60;99.90;;;;;;5047927;28;20606;-83
2022/01/15 05:36:54;;;;;;;30.93;6.57;;;-1.60;99.90;;;;;;5049193;28;21006;-83
2022/01/15 05:39:21;;;;;;;6.90;4.80;;;-1.60;99.90;;;;;;5053432;28;20480;-82
2022/01/15 05:41:48;;;;;;;8.53;4.80;;;-1.60;99.90;;;;;;5048987;28;20482;-81
2022/01/15 05:44:16;;;;;;;41.03;8.40;;;-1.60;99.90;;;;;;5053289;28;20496;-82
2022/01/15 05:46:44;;;;;;;17.23;7.00;;;-1.70;99.90;;;;;;5051202;28;20507;-83
2022/01/15 05:49:13;;;;;;;20.30;6.30;;;-2.20;99.90;;;;;;5047458;28;20453;-82
2022/01/15 05:51:40;;;;;;;40.07;6.77;;;-2.60;99.90;;;;;;5055059;28;20526;-82
2022/01/15 05:54:10;;;;;;;7.33;3.70;;;-2.70;99.90;;;;;;5055590;28;20544;-82
2022/01/15 05:56:37;;;;;;;17.03;9.87;;;-2.80;99.90;;;;;;5046299;28;20982;-82
2022/01/15 05:59:04;;;;;;;18.30;9.43;;;-2.80;99.90;;;;;;5042150;28;20477;-82
2022/01/15 06:01:33;;;;;;;14.40;6.30;;;-2.70;99.90;;;;;;5055607;28;20481;-82
2022/01/15 06:04:00;;;;;;;18.77;6.30;;;-2.60;99.90;;;;;;5052449;28;20522;-82
2022/01/15 06:06:27;;;;;;;8.57;5.63;;;-2.40;99.90;;;;;;5050673;28;20449;-82
2022/01/15 06:08:54;;;;;;;6.37;5.20;;;-2.30;99.90;;;;;;5047901;28;21412;-82
2022/01/15 06:11:23;;;;;;;14.00;5.70;;;-2.20;99.90;;;;;;5050452;28;20448;-81
2022/01/15 06:13:50;;;;;;;11.67;5.70;;;-2.10;99.90;;;;;;5050583;23;21296;-50
2022/01/15 06:16:17;;;;;;;12.97;6.37;;;-2.00;99.90;;;;;;5056146;28;20492;-50
2022/01/15 06:18:46;;;;;;;10.37;6.40;;;-2.00;99.90;;;;;;5052675;28;20538;-52
2022/01/15 06:21:13;;;;;;;11.67;8.63;;;-1.90;99.90;;;;;;5052837;28;20472;-52
2022/01/15 06:23:40;;;;;;;19.50;13.33;;;-1.90;99.90;;;;;;5052169;28;20893;-51
2022/01/15 06:26:07;;;;;;;22.00;10.63;;;-1.90;99.90;;;;;;5056277;28;20482;-50
2022/01/15 06:28:34;;;;;;;13.10;7.87;;;-1.90;99.90;;;;;;5069746;23;20833;-83
2022/01/15 06:31:01;;;;;;;10.57;7.47;;;-1.90;99.90;;;;;;5048368;28;20504;-83
2022/01/15 06:33:28;;;;;;;14.33;7.53;;;-1.90;99.90;;;;;;5057084;28;20509;-83
2022/01/15 06:35:56;;;;;;;21.50;7.27;;;-1.90;99.90;;;;;;5049728;28;20449;-83
2022/01/15 06:38:23;;;;;;;15.23;7.60;;;-1.90;99.90;;;;;;5043410;28;20488;-83
2022/01/15 06:40:50;;;;;;;27.57;8.73;;;-1.80;99.90;;;;;;5055138;28;20477;-83
2022/01/15 06:43:17;;;;;;;16.33;8.13;;;-1.80;99.90;;;;;;5051029;28;20519;-83
2022/01/15 06:45:44;;;;;;;16.07;10.30;;;-1.80;99.90;;;;;;5049493;28;20548;-83
2022/01/15 06:48:11;;;;;;;21.77;9.97;;;-1.80;99.90;;;;;;5046677;28;20528;-83
2022/01/15 06:50:38;;;;;;;13.53;7.90;;;-1.80;99.90;;;;;;5059474;28;21029;-83
2022/01/15 06:53:06;;;;;;;11.93;7.93;;;-1.80;99.90;;;;;;5047758;28;20506;-83
2022/01/15 06:55:33;;;;;;;16.97;8.63;;;-1.80;99.90;;;;;;5047589;28;20505;-83
2022/01/15 06:58:00;;;;;;;23.87;8.43;;;-1.80;99.90;;;;;;5057808;28;20477;-83
2022/01/15 07:00:27;;;;;;;14.83;6.90;;;-1.80;99.90;;;;;;5043995;28;20467;-83
2022/01/15 07:02:54;;;;;;;15.70;9.67;;;-1.70;99.90;;;;;;5046894;28;20496;-83
2022/01/15 07:05:21;;;;;;;14.80;9.97;;;-1.70;99.90;;;;;;5051474;28;21141;-83
2022/01/15 07:07:48;;;;;;;14.50;9.57;;;-1.70;99.90;;;;;;5056185;28;20543;-84
2022/01/15 07:10:17;;;;;;;19.50;10.07;;;-1.60;99.90;;;;;;5045873;28;20442;-83
2022/01/15 07:12:44;;;;;;;18.60;9.07;;;-1.60;99.90;;;;;;5047503;28;20486;-84
2022/01/15 07:15:12;;;;;;;19.23;8.43;;;-1.70;99.90;;;;;;5053714;28;20466;-84
2022/01/15 07:17:43;;;;;;;24.30;9.90;;;-1.70;99.90;;;;;;5043688;28;20486;-83
2022/01/15 07:20:12;;;;;;;17.53;7.57;;;-1.80;99.90;;;;;;5039713;28;20545;-84
2022/01/15 07:22:40;;;;;;;14.43;7.60;;;-1.80;99.90;;;;;;5047562;28;20477;-85
2022/01/15 07:25:08;;;;;;;22.00;9.40;;;-1.80;99.90;;;;;;5040685;28;20939;-83
2022/01/15 07:27:37;;;;;;;10.40;9.33;;;-1.80;99.90;;;;;;5040769;28;20447;-83
2022/01/15 07:30:05;;;;;;;19.93;12.47;;;-1.70;99.90;;;;;;5041157;28;20481;-83
2022/01/15 07:32:32;;;;;;;19.50;11.23;;;-1.70;99.90;;;;;;5044179;28;20441;-83
2022/01/15 07:34:59;;;;;;;20.10;9.97;;;-1.70;99.90;;;;;;5041815;28;20485;-83
2022/01/15 07:37:27;;;;;;;21.20;11.27;;;-1.70;99.90;;;;;;5042169;28;20478;-83
2022/01/15 07:39:54;;;;;;;21.23;11.20;;;-1.70;99.90;;;;;;5042714;28;20529;-83
2022/01/15 07:42:21;;;;;;;36.83;11.00;;;-1.60;99.90;;;;;;5042615;28;20456;-83
2022/01/15 07:44:49;;;;;;;39.13;15.63;;;-1.60;99.90;;;;;;5042755;28;20555;-83
2022/01/15 07:47:16;;;;;;;40.77;13.10;;;-1.60;99.90;;;;;;5045056;28;20481;-84
2022/01/15 07:49:43;;;;;;;55.60;11.30;;;-1.60;99.90;;;;;;5049122;28;20495;-83
2022/01/15 07:52:10;;;;;;;19.73;11.50;;;-1.60;99.90;;;;;;5050608;28;20441;-83
2022/01/15 07:54:37;;;;;;;17.83;8.43;;;-1.60;99.90;;;;;;5048491;28;20515;-84
2022/01/15 07:57:05;;;;;;;21.03;9.80;;;-1.60;99.90;;;;;;5048254;28;20448;-84
2022/01/15 07:59:32;;;;;;;18.17;8.93;;;-1.60;99.90;;;;;;5051580;28;20453;-84
2022/01/15 08:02:00;;;;;;;24.47;9.97;;;-1.60;99.90;;;;;;5047115;28;20978;-83
2022/01/15 08:04:27;;;;;;;27.93;11.40;;;-1.70;99.90;;;;;;5044991;28;20520;-84
2022/01/15 08:06:54;;;;;;;21.53;10.40;;;-1.70;99.90;;;;;;5048878;28;20926;-83
2022/01/15 08:09:21;;;;;;;37.33;12.77;;;-1.70;99.90;;;;;;5043376;28;20453;-83
2022/01/15 08:11:48;;;;;;;49.33;16.97;;;-1.70;99.90;;;;;;5049961;28;20942;-83
2022/01/15 08:14:15;;;;;;;65.53;23.17;;;-1.70;99.90;;;;;;5048859;28;20478;-83
2022/01/15 08:16:42;;;;;;;36.57;11.60;;;-1.70;99.90;;;;;;5041238;28;20525;-84
2022/01/15 08:19:10;;;;;;;14.97;7.20;;;-1.70;99.90;;;;;;5045675;28;20820;-83
2022/01/15 08:21:37;;;;;;;14.23;8.10;;;-1.70;99.90;;;;;;5051466;28;20440;-84
2022/01/15 08:24:05;;;;;;;14.97;9.53;;;-1.80;99.90;;;;;;5047883;28;20627;-83
2022/01/15 08:26:32;;;;;;;27.23;11.30;;;-1.80;99.90;;;;;;5047344;28;20475;-83
2022/01/15 08:28:59;;;;;;;17.03;10.87;;;-1.80;99.90;;;;;;5046750;28;20497;-83
2022/01/15 08:31:26;;;;;;;19.80;11.93;;;-1.80;99.90;;;;;;5044814;28;20820;-85
2022/01/15 08:33:53;;;;;;;13.27;11.00;;;-1.80;99.90;;;;;;5051279;28;20496;-84
2022/01/15 08:36:22;;;;;;;16.10;9.67;;;-1.70;99.90;;;;;;5050679;28;20450;-84
2022/01/15 08:38:49;;;;;;;21.40;8.73;;;-1.80;99.90;;;;;;5050370;28;20460;-84
2022/01/15 08:41:17;;;;;;;12.50;7.87;;;-2.20;99.90;;;;;;5048541;28;20491;-83
2022/01/15 08:43:44;;;;;;;21.60;8.40;;;-2.30;99.90;;;;;;5048900;28;20434;-84
2022/01/15 08:46:11;;;;;;;30.63;9.07;;;-2.40;99.90;;;;;;5045395;28;20500;-85
2022/01/15 08:48:39;;;;;;;12.03;6.63;;;-2.30;99.90;;;;;;5050060;28;21007;-84
2022/01/15 08:51:06;;;;;;;13.90;5.37;;;-2.10;99.90;;;;;;5043904;28;20818;-84
2022/01/15 08:53:34;;;;;;;22.80;8.50;;;-2.00;99.90;;;;;;5046182;28;20473;-85
2022/01/15 08:56:03;;;;;;;17.40;9.00;;;-2.00;99.90;;;;;;5048784;28;20503;-84
2022/01/15 08:58:30;;;;;;;16.13;9.27;;;-1.90;99.90;;;;;;5046068;28;20463;-84
2022/01/15 09:00:57;;;;;;;21.67;12.30;;;-1.80;99.90;;;;;;5044704;28;20475;-84
2022/01/15 09:03:25;;;;;;;13.93;9.10;;;-1.70;99.90;;;;;;5063786;28;20706;-84
2022/01/15 09:05:52;;;;;;;27.00;7.63;;;-1.70;99.90;;;;;;5052924;28;20490;-86
2022/01/15 09:08:24;;;;;;;10.33;8.10;;;-1.60;99.90;;;;;;5045582;28;20446;-84
2022/01/15 09:10:53;;;;;;;16.60;7.33;;;-1.70;99.90;;;;;;5050314;28;20446;-86
2022/01/15 09:13:20;;;;;;;20.53;8.87;;;-1.80;99.90;;;;;;5061194;28;20429;-85
2022/01/15 09:15:49;;;;;;;36.43;9.43;;;-1.80;99.90;;;;;;5057871;28;20509;-84
2022/01/15 09:18:16;;;;;;;22.63;10.23;;;-1.80;99.90;;;;;;5058675;28;20577;-85
2022/01/15 09:20:44;;;;;;;37.03;9.90;;;-1.70;99.90;;;;;;5064557;28;20448;-88
2022/01/15 09:23:12;;;;;;;27.23;10.27;;;-1.60;99.90;;;;;;5054427;28;20454;-86
2022/01/15 09:25:39;;;;;;;13.50;9.10;;;-1.60;99.90;;;;;;5047462;28;20466;-86
2022/01/15 09:30:52;;;;;;;34.27;19.47;;;-1.40;99.90;;;;;;5069063;28;20531;-86
2022/01/15 09:33:19;;;;;;;21.13;10.57;;;-1.30;99.90;;;;;;5055556;28;20471;-86
2022/01/15 09:35:46;;;;;;;17.50;10.47;;;-1.30;99.90;;;;;;5060659;28;20851;-85
2022/01/15 09:38:15;;;;;;;15.20;9.60;;;-1.20;99.90;;;;;;5050098;28;20802;-85
2022/01/15 09:40:43;;;;;;;17.67;10.73;;;-1.20;99.90;;;;;;5042253;28;20446;-84
2022/01/15 09:43:13;;;;;;;26.23;17.77;;;-1.10;99.90;;;;;;5048416;28;20549;-84
2022/01/15 09:45:40;;;;;;;49.60;27.50;;;-1.10;99.90;;;;;;5058429;28;20469;-85
2022/01/15 09:48:08;;;;;;;51.03;30.93;;;-1.00;99.90;;;;;;5047239;28;20505;-83
2022/01/15 09:50:45;;;;;;;47.27;27.23;;;-1.00;99.90;;;;;;5051845;28;20452;-84
2022/01/15 09:53:14;;;;;;;77.90;32.23;;;-1.00;99.90;;;;;;5052395;28;20798;-83
2022/01/15 09:55:41;;;;;;;64.53;33.70;;;-0.90;99.90;;;;;;5041784;28;20573;-84
2022/01/15 09:58:08;;;;;;;74.47;34.57;;;-0.80;99.90;;;;;;5047933;28;20481;-84
2022/01/15 10:00:36;;;;;;;67.73;33.57;;;-0.80;99.90;;;;;;5046258;28;20541;-84
2022/01/15 10:03:03;;;;;;;72.13;25.50;;;-0.70;99.90;;;;;;5047419;28;20444;-84
2022/01/15 10:05:31;;;;;;;56.10;19.67;;;-0.70;99.90;;;;;;5054960;28;20883;-83
2022/01/15 10:08:00;;;;;;;32.10;9.87;;;-0.70;99.90;;;;;;5055286;28;20472;-84
2022/01/15 10:10:29;;;;;;;48.03;11.60;;;-1.00;99.90;;;;;;5060825;28;20436;-83
2022/01/15 10:12:56;;;;;;;15.13;9.00;;;-1.20;99.90;;;;;;5054337;28;20442;-84
2022/01/15 10:15:23;;;;;;;20.57;6.40;;;-1.10;99.90;;;;;;5047817;28;21208;-84
2022/01/15 10:17:52;;;;;;;5.93;5.23;;;-1.00;99.90;;;;;;5038205;28;21058;-83
2022/01/15 10:20:21;;;;;;;9.43;5.87;;;-0.90;99.90;;;;;;5050921;28;20878;-84
2022/01/15 10:22:51;;;;;;;7.93;4.30;;;-0.90;99.90;;;;;;5047664;28;20840;-84
2022/01/15 10:25:21;;;;;;;4.90;3.87;;;-1.10;99.90;;;;;;5049032;28;20474;-83
2022/01/15 10:27:50;;;;;;;6.07;4.20;;;-1.20;99.90;;;;;;5067281;28;20508;-83
2022/01/15 10:30:19;;;;;;;7.27;4.03;;;-1.20;99.90;;;;;;5059533;28;20488;-84
2022/01/15 10:32:58;;;;;;;3.97;3.40;;;-1.10;99.90;;;;;;5051131;28;20478;-86
2022/01/15 10:35:27;;;;;;;5.33;4.80;;;-1.00;99.90;;;;;;5054557;28;20623;-84
2022/01/15 10:37:55;;;;;;;9.43;5.80;;;-0.90;99.90;;;;;;5054753;28;20934;-84
2022/01/15 10:40:25;;;;;;;10.10;6.00;;;-0.90;99.90;;;;;;5059828;28;20444;-86
2022/01/15 10:42:55;;;;;;;10.50;7.40;;;-0.80;99.90;;;;;;5060074;28;20505;-84
2022/01/15 10:45:23;;;;;;;8.10;7.30;;;-0.70;99.90;;;;;;5059495;28;22166;-85
2022/01/15 10:47:54;;;;;;;11.30;7.63;;;-0.70;99.90;;;;;;5059215;28;20437;-83
2022/01/15 10:50:25;;;;;;;9.57;6.87;;;-0.60;99.90;;;;;;5055385;28;20460;-84
2022/01/15 10:52:53;;;;;;;10.73;8.17;;;-0.60;99.90;;;;;;5057365;28;20443;-84
2022/01/15 10:55:26;;;;;;;9.70;7.50;;;-0.60;99.90;;;;;;5058959;28;20557;-84
2022/01/15 10:57:58;;;;;;;10.70;8.83;;;-0.50;99.90;;;;;;5045386;28;20971;-83
2022/01/15 11:00:28;;;;;;;16.00;8.70;;;-0.40;99.90;;;;;;5037353;28;20441;-83
2022/01/15 11:02:58;;;;;;;13.33;8.07;;;-0.40;99.90;;;;;;5047960;28;20915;-83
2022/01/15 11:05:35;;;;;;;10.90;7.90;;;-0.50;99.90;;;;;;5041371;28;20497;-83
2022/01/15 11:08:16;;;;;;;10.10;7.80;;;-0.40;99.90;;;;;;5044709;28;20856;-83
2022/01/15 11:10:49;;;;;;;13.37;10.00;;;-0.30;99.90;;;;;;5042168;28;20447;-83
2022/01/15 11:13:18;;;;;;;12.97;9.80;;;-0.30;99.90;;;;;;5043721;28;21026;-83
2022/01/15 11:15:47;;;;;;;17.17;11.13;;;-0.10;99.90;;;;;;5055228;28;20482;-83
2022/01/15 11:18:18;;;;;;;10.93;9.60;;;-0.10;99.90;;;;;;5040656;28;20515;-83
2022/01/15 11:20:49;;;;;;;10.23;9.03;;;-0.20;99.90;;;;;;5042925;28;20443;-83
2022/01/15 11:23:20;;;;;;;14.07;11.77;;;0.00;99.90;;;;;;5049847;28;20447;-81
2022/01/15 11:25:48;;;;;;;33.90;25.40;;;-0.10;99.90;;;;;;5049054;28;20470;-83
2022/01/15 11:28:16;;;;;;;22.30;17.43;;;0.00;99.90;;;;;;5052046;28;20943;-83
2022/01/15 11:30:45;;;;;;;17.10;12.20;;;0.10;99.90;;;;;;5058302;28;20444;-82
2022/01/15 11:33:13;;;;;;;14.90;10.30;;;0.20;99.90;;;;;;5042768;28;20484;-82
2022/01/15 11:35:44;;;;;;;12.30;9.33;;;0.20;99.90;;;;;;5053173;28;20511;-83
2022/01/15 11:38:39;;;;;;;11.70;8.83;;;0.30;99.90;;;;;;5052510;28;20463;-82
2022/01/15 11:41:07;;;;;;;11.50;10.30;;;0.30;99.90;;;;;;5045044;28;20447;-82
2022/01/15 11:43:40;;;;;;;9.10;8.20;;;0.30;99.90;;;;;;5038922;28;20456;-82
2022/01/15 11:46:29;;;;;;;9.87;7.37;;;0.20;99.90;;;;;;5049041;28;20480;-82
2022/01/15 11:49:31;;;;;;;9.93;8.40;;;0.10;99.90;;;;;;5044493;28;20449;-82
2022/01/15 11:52:21;;;;;;;11.53;10.23;;;0.20;99.90;;;;;;5051340;28;20447;-82
2022/01/15 11:55:12;;;;;;;15.13;11.20;;;0.30;99.90;;;;;;5054765;28;20487;-82
2022/01/15 11:57:48;;;;;;;27.20;19.63;;;0.30;99.90;;;;;;5062672;28;20496;-82
2022/01/15 12:00:21;;;;;;;22.87;18.10;;;0.40;99.90;;;;;;5050244;28;20824;-83
2022/01/15 12:03:07;;;;;;;13.20;11.90;;;0.50;99.90;;;;;;5061996;28;20453;-82
2022/01/15 12:05:40;;;;;;;14.10;10.87;;;0.40;99.90;;;;;;5057467;28;20453;-82
2022/01/15 12:08:30;;;;;;;14.00;12.50;;;0.30;99.90;;;;;;5050269;28;20443;-82
2022/01/15 12:11:00;;;;;;;16.63;12.37;;;0.50;99.90;;;;;;5045398;28;20478;-83
2022/01/15 12:13:34;;;;;;;13.03;10.03;;;0.60;99.90;;;;;;5051962;28;20507;-83
2022/01/15 12:16:36;;;;;;;9.10;8.20;;;0.60;99.90;;;;;;5063438;22;20496;-56
2022/01/15 12:19:04;;;;;;;8.70;7.80;;;0.70;99.90;;;;;;5046309;28;20461;-57
2022/01/15 12:21:55;;;;;;;11.67;9.17;;;0.80;99.90;;;;;;5049238;28;20878;-56
2022/01/15 12:24:40;;;;;;;7.63;6.93;;;0.90;99.90;;;;;;5045953;28;20518;-57
2022/01/15 12:27:11;;;;;;;8.87;7.97;;;0.90;99.90;;;;;;5053535;28;20483;-56
2022/01/15 12:29:40;;;;;;;9.37;8.27;;;1.00;99.90;;;;;;5065332;23;20497;-56
2022/01/15 12:32:08;;;;;;;8.53;7.50;;;1.00;99.90;;;;;;5051832;28;20533;-56
2022/01/15 12:34:35;;;;;;;9.60;8.63;;;1.00;99.90;;;;;;5053722;28;20881;-63
2022/01/15 12:37:03;;;;;;;11.27;8.60;;;0.90;99.90;;;;;;5053633;28;20449;-62
2022/01/15 12:39:38;;;;;;;9.70;8.43;;;0.90;99.90;;;;;;5048543;28;20529;-56
2022/01/15 12:42:06;;;;;;;14.13;9.70;;;0.90;99.90;;;;;;5048820;28;20474;-56
2022/01/15 12:44:42;;;;;;;17.90;13.50;;;1.00;99.90;;;;;;5052275;28;20526;-56
2022/01/15 12:47:10;;;;;;;11.57;9.03;;;1.10;99.90;;;;;;5053790;28;20464;-56
2022/01/15 12:49:38;;;;;;;12.90;10.80;;;1.20;99.90;;;;;;5052035;28;20854;-57
2022/01/15 12:52:14;;;;;;;8.60;7.17;;;1.20;99.90;;;;;;5050599;28;20961;-57
2022/01/15 12:54:42;;;;;;;9.60;8.23;;;1.30;99.90;;;;;;5055717;28;20472;-57
2022/01/15 12:57:09;;;;;;;9.63;8.70;;;1.40;99.90;;;;;;5056163;28;20468;-57
2022/01/15 12:59:38;;;;;;;10.57;8.50;;;1.40;99.90;;;;;;5051657;28;20465;-58